TimeCST,TemperatureF,Dew PointF,Humidity,Sea Level PressureIn,VisibilityMPH,Wind Direction,Wind SpeedMPH,Gust SpeedMPH,PrecipitationIn,Events,Conditions,WindDirDegrees,DateUTC
12:15 AM,33.1,33.1,100,30.06,5.0,WNW,4.6,-,N/A,Snow,Light Snow,300,2013-03-01 06:15:00
12:35 AM,33.3,33.3,100,30.06,5.0,NW,5.8,-,N/A,Snow,Light Snow,310,2013-03-01 06:35:00
12:55 AM,33.3,33.1,99,30.06,7.0,NW,4.6,-,N/A,Snow,Light Snow,310,2013-03-01 06:55:00
1:15 AM,33.4,33.1,99,30.06,7.0,NW,5.8,-,N/A,Snow,Light Snow,310,2013-03-01 07:15:00
1:35 AM,33.4,33.1,99,30.06,4.0,WNW,5.8,-,N/A,Snow,Light Snow,300,2013-03-01 07:35:00
1:55 AM,33.1,33.1,100,30.06,3.0,WNW,4.6,-,N/A,Snow,Light Snow,300,2013-03-01 07:55:00
2:55 AM,32.7,32.7,100,30.05,2.5,WNW,4.6,-,N/A,Snow,Light Snow,290,2013-03-01 08:55:00
3:15 AM,32.5,32.5,100,30.05,2.0,WNW,3.5,-,N/A,Snow,Light Snow,290,2013-03-01 09:15:00
3:35 AM,32.5,32.5,100,30.05,1.8,West,3.5,-,N/A,Snow,Light Snow,280,2013-03-01 09:35:00
3:55 AM,32.5,32.5,100,30.05,1.8,WNW,4.6,-,N/A,Snow,Light Snow,290,2013-03-01 09:55:00
4:15 AM,32.4,32.4,100,30.05,2.0,West,3.5,-,N/A,Snow,Light Snow,280,2013-03-01 10:15:00
4:35 AM,32.4,32.4,100,30.05,2.0,WNW,4.6,-,N/A,Snow,Light Snow,290,2013-03-01 10:35:00
4:55 AM,32.4,32.4,100,30.05,2.0,WNW,4.6,-,N/A,Snow,Light Snow,300,2013-03-01 10:55:00
5:15 AM,32.4,32.4,100,30.05,2.5,WNW,4.6,-,N/A,Snow,Light Snow,300,2013-03-01 11:15:00
5:35 AM,32.4,32.4,100,30.05,2.5,WNW,4.6,-,N/A,Snow,Light Snow,300,2013-03-01 11:35:00
5:55 AM,32.4,32.4,100,30.05,2.5,WNW,4.6,-,N/A,Snow,Light Snow,290,2013-03-01 11:55:00
6:15 AM,32.2,32.2,100,30.06,2.5,WNW,3.5,-,N/A,Snow,Light Snow,290,2013-03-01 12:15:00
7:15 AM,32.5,32.5,100,30.07,2.5,West,3.5,-,N/A,Snow,Light Snow,280,2013-03-01 13:15:00
7:35 AM,32.9,32.9,100,30.08,2.0,WNW,3.5,-,N/A,Snow,Light Snow,290,2013-03-01 13:35:00
7:55 AM,32.9,32.9,100,30.08,1.2,WNW,3.5,-,N/A,Snow,Light Snow,300,2013-03-01 13:55:00
8:15 AM,32.9,32.9,100,30.08,1.2,WNW,3.5,-,N/A,Snow,Light Snow,300,2013-03-01 14:15:00
8:35 AM,33.3,33.3,100,30.08,1.2,WNW,5.8,-,N/A,Snow,Light Snow,300,2013-03-01 14:35:00
8:55 AM,33.8,33.8,100,30.08,1.8,WNW,6.9,-,N/A,Snow,Light Snow,290,2013-03-01 14:55:00
9:15 AM,34.2,34.2,100,30.08,1.8,NW,6.9,-,N/A,Snow,Light Snow,320,2013-03-01 15:15:00
9:35 AM,34.9,34.9,100,30.08,2.0,NNW,6.9,-,N/A,Snow,Light Snow,330,2013-03-01 15:35:00
9:55 AM,35.1,35.1,100,30.09,2.5,NW,5.8,-,N/A,Snow,Light Snow,310,2013-03-01 15:55:00
10:15 AM,35.8,35.6,99,30.09,5.0,NNW,5.8,-,N/A,Rain,Light Rain,330,2013-03-01 16:15:00
10:35 AM,35.8,34.9,97,30.09,10.0,NW,8.1,-,N/A,Rain,Light Rain,310,2013-03-01 16:35:00
11:15 AM,35.8,35.1,97,30.09,7.0,WNW,6.9,-,N/A,Rain,Light Rain,290,2013-03-01 17:15:00
11:35 AM,36.3,35.2,96,30.09,7.0,NNW,8.1,-,N/A,Rain,Light Rain,330,2013-03-01 17:35:00
11:55 AM,36.5,35.2,95,30.09,10.0,NW,6.9,-,N/A,Rain,Light Rain,320,2013-03-01 17:55:00
12:15 PM,36.5,35.2,95,30.08,7.0,WNW,8.1,-,N/A,Rain,Light Rain,300,2013-03-01 18:15:00
12:35 PM,36.5,35.1,95,30.08,10.0,NW,6.9,-,N/A,Rain,Light Rain,310,2013-03-01 18:35:00
12:55 PM,36.9,34.9,93,30.07,10.0,NNW,6.9,-,N/A,Rain,Light Rain,330,2013-03-01 18:55:00
1:15 PM,36.5,34.7,93,30.07,10.0,WNW,8.1,-,N/A,Rain,Light Rain,300,2013-03-01 19:15:00
1:35 PM,36.7,35.2,95,30.06,10.0,NW,8.1,-,N/A,Rain,Light Rain,310,2013-03-01 19:35:00
1:55 PM,36.9,35.4,95,30.06,10.0,NW,8.1,-,N/A,Rain,Light Rain,320,2013-03-01 19:55:00
2:15 PM,37.9,35.1,89,30.06,10.0,NW,9.2,-,N/A,Rain,Light Rain,320,2013-03-01 20:15:00
2:35 PM,38.3,36.0,91,30.06,10.0,WNW,8.1,-,N/A,,Overcast,290,2013-03-01 20:35:00
2:55 PM,36.0,33.8,92,30.06,5.0,WNW,8.1,-,N/A,Rain,Light Rain,300,2013-03-01 20:55:00
3:15 PM,36.5,35.4,96,30.06,10.0,West,8.1,-,N/A,,Overcast,260,2013-03-01 21:15:00
3:35 PM,37.4,33.1,84,30.06,10.0,WNW,10.4,-,N/A,,Overcast,300,2013-03-01 21:35:00
3:55 PM,37.4,32.0,81,30.06,10.0,WNW,8.1,-,N/A,,Mostly Cloudy,300,2013-03-01 21:55:00
4:15 PM,37.2,32.0,81,30.07,10.0,WNW,11.5,-,N/A,,Overcast,300,2013-03-01 22:15:00
4:35 PM,36.5,31.8,83,30.07,10.0,NNW,9.2,-,N/A,,Overcast,330,2013-03-01 22:35:00
4:55 PM,36.1,31.8,84,30.08,10.0,NW,10.4,-,N/A,,Overcast,310,2013-03-01 22:55:00
5:15 PM,35.6,32.0,87,30.08,10.0,WNW,8.1,-,N/A,,Drizzle,300,2013-03-01 23:15:00
5:35 PM,35.1,32.0,89,30.08,10.0,NW,9.2,-,N/A,,Drizzle,310,2013-03-01 23:35:00
5:55 PM,34.7,32.0,90,30.09,10.0,WNW,6.9,-,N/A,Rain,Light Rain,300,2013-03-01 23:55:00
6:15 PM,34.5,32.2,91,30.10,10.0,WNW,5.8,-,N/A,Rain,Light Rain,300,2013-03-02 00:15:00
6:35 PM,34.7,32.9,93,30.10,10.0,NNW,4.6,-,N/A,Rain,Light Rain,330,2013-03-02 00:35:00
6:55 PM,34.0,33.6,99,30.11,7.0,NW,5.8,-,N/A,Snow,Light Snow,320,2013-03-02 00:55:00
7:15 PM,33.8,33.1,97,30.11,5.0,NNW,8.1,-,N/A,Snow,Light Snow,330,2013-03-02 01:15:00
7:35 PM,33.6,33.1,98,30.11,5.0,NNW,9.2,-,N/A,Snow,Light Snow,330,2013-03-02 01:35:00
7:55 PM,33.3,32.9,99,30.11,4.0,NNW,13.8,-,N/A,Snow,Light Snow,330,2013-03-02 01:55:00
8:15 PM,32.9,32.2,97,30.12,10.0,NNW,8.1,-,N/A,,Overcast,330,2013-03-02 02:15:00
8:35 PM,32.9,31.1,93,30.12,10.0,NNW,8.1,-,N/A,,Overcast,330,2013-03-02 02:35:00
8:55 PM,32.9,31.1,93,30.12,10.0,NNW,6.9,-,N/A,,Overcast,330,2013-03-02 02:55:00
9:15 PM,32.9,30.2,90,30.13,10.0,NNW,8.1,-,N/A,,Overcast,340,2013-03-02 03:15:00
9:35 PM,32.5,30.6,92,30.13,10.0,NNW,5.8,-,N/A,,Overcast,330,2013-03-02 03:35:00
9:55 PM,32.5,29.7,89,30.12,10.0,NNW,8.1,-,N/A,,Overcast,330,2013-03-02 03:55:00
10:15 PM,32.4,29.8,90,30.12,10.0,NNW,6.9,-,N/A,,Overcast,330,2013-03-02 04:15:00
10:35 PM,32.2,30.2,92,30.13,5.0,NW,9.2,-,N/A,,Overcast,310,2013-03-02 04:35:00
10:55 PM,32.0,30.2,93,30.12,7.0,NW,6.9,-,N/A,Snow,Light Snow,320,2013-03-02 04:55:00
11:15 PM,32.0,30.2,93,30.12,5.0,NW,5.8,-,N/A,Snow,Light Snow,310,2013-03-02 05:15:00
11:35 PM,32.0,30.2,93,30.12,5.0,NW,4.6,-,N/A,Snow,Light Snow,310,2013-03-02 05:35:00
11:55 PM,32.0,30.9,96,30.12,5.0,NW,8.1,-,N/A,Snow,Light Snow,310,2013-03-02 05:55:00